Time;durP1;ratioP1;P1;durP2;ratioP2;P2;SDS_P1;SDS_P2;PMS_P1;PMS_P2;Temp;Humidity;BMP_temperature;BMP_pressure;BME280_temperature;BME280_humidity;BME280_pressure;Samples;Min_cycle;Max_cycle;Signal;HPM_P1;HPM_P2
2023/01/16 00:01:53;;;;;;;37.90;23.25;;;;;;;6.23;100.00;99795.28;5108950;28;20038;-70
2023/01/16 00:04:18;;;;;;;33.70;21.17;;;;;;;6.25;100.00;99802.19;5109053;28;20475;-70
2023/01/16 00:06:44;;;;;;;32.72;20.30;;;;;;;6.23;100.00;99806.75;5107895;28;20027;-70
2023/01/16 00:09:09;;;;;;;34.22;20.73;;;;;;;6.14;100.00;99785.34;5108623;28;20545;-70
2023/01/16 00:11:35;;;;;;;33.97;20.67;;;;;;;6.17;100.00;99801.94;5108705;28;20030;-70
2023/01/16 00:14:00;;;;;;;29.83;20.23;;;;;;;6.16;100.00;99797.56;5109212;28;20023;-70
2023/01/16 00:16:27;;;;;;;31.75;19.05;;;;;;;6.18;100.00;99787.66;5112307;28;20024;-70
2023/01/16 00:18:53;;;;;;;32.53;19.70;;;;;;;6.28;100.00;99785.09;5112961;28;20023;-71
2023/01/16 00:21:19;;;;;;;30.10;19.13;;;;;;;6.18;100.00;99794.78;5112328;28;20034;-70
2023/01/16 00:23:45;;;;;;;29.75;19.05;;;;;;;6.11;100.00;99782.94;5112337;28;20442;-70
2023/01/16 00:26:11;;;;;;;31.10;18.83;;;;;;;6.12;100.00;99796.13;5112508;27;20043;-70
2023/01/16 00:28:38;;;;;;;32.50;20.60;;;;;;;6.04;100.00;99792.38;5112702;28;20039;-71
2023/01/16 00:31:05;;;;;;;30.98;19.10;;;;;;;6.01;100.00;99800.59;5112520;28;20533;-70
2023/01/16 00:33:31;;;;;;;31.98;20.33;;;;;;;5.98;100.00;99782.19;5112637;28;20028;-70
2023/01/16 00:35:57;;;;;;;34.50;21.00;;;;;;;5.95;100.00;99783.28;5111113;28;20096;-71
2023/01/16 00:38:22;;;;;;;35.10;21.00;;;;;;;5.93;100.00;99784.38;5112369;28;20028;-70
2023/01/16 00:40:48;;;;;;;34.38;19.98;;;;;;;5.88;100.00;99784.72;5112472;28;21081;-70
2023/01/16 00:43:13;;;;;;;32.00;20.13;;;;;;;5.93;100.00;99795.84;5110413;28;20092;-70
2023/01/16 00:45:39;;;;;;;31.58;18.83;;;;;;;5.87;100.00;99780.34;5112129;28;20027;-70
2023/01/16 00:48:06;;;;;;;36.15;20.40;;;;;;;5.78;100.00;99773.06;5112162;28;20047;-70
2023/01/16 00:50:32;;;;;;;33.78;20.90;;;;;;;5.80;100.00;99767.63;5111457;28;20399;-70
2023/01/16 00:52:57;;;;;;;32.35;19.52;;;;;;;5.75;100.00;99775.09;5112020;28;20040;-70
2023/01/16 00:55:23;;;;;;;34.20;19.30;;;;;;;5.70;100.00;99763.94;5110638;28;20027;-70
2023/01/16 00:57:49;;;;;;;32.67;20.88;;;;;;;5.63;100.00;99771.56;5112103;28;20031;-70
2023/01/16 01:00:16;;;;;;;34.00;20.63;;;;;;;5.48;100.00;99746.13;5111753;28;20048;-69
2023/01/16 01:02:41;;;;;;;33.58;20.85;;;;;;;5.55;100.00;99765.97;5110568;28;20020;-70
2023/01/16 01:05:07;;;;;;;33.53;20.08;;;;;;;5.46;100.00;99757.84;5110308;28;20088;-70
2023/01/16 01:07:32;;;;;;;30.45;19.80;;;;;;;5.45;100.00;99764.97;5111755;28;20057;-70
2023/01/16 01:09:58;;;;;;;29.83;18.35;;;;;;;5.36;100.00;99755.06;5111538;28;20627;-70
2023/01/16 01:12:23;;;;;;;37.08;20.08;;;;;;;5.34;100.00;99758.78;5110016;28;20038;-69
2023/01/16 01:14:49;;;;;;;30.70;18.83;;;;;;;5.29;100.00;99761.78;5111013;28;20036;-70
2023/01/16 01:17:14;;;;;;;29.10;19.48;;;;;;;5.30;100.00;99762.63;5109936;28;20031;-70
2023/01/16 01:19:39;;;;;;;28.73;18.90;;;;;;;5.20;100.00;99745.69;5111548;28;20027;-70
2023/01/16 01:22:05;;;;;;;34.83;20.55;;;;;;;5.17;100.00;99759.19;5111037;28;20460;-70
2023/01/16 01:24:30;;;;;;;30.67;19.42;;;;;;;5.00;100.00;99743.66;5109569;28;20031;-71
2023/01/16 01:26:56;;;;;;;30.23;19.67;;;;;;;5.06;100.00;99749.34;5111146;28;20031;-70
2023/01/16 01:29:21;;;;;;;30.48;19.40;;;;;;;5.06;100.00;99751.19;5111122;28;20110;-71
2023/01/16 01:31:47;;;;;;;29.83;19.25;;;;;;;4.95;100.00;99737.84;5110311;28;20042;-70
2023/01/16 01:34:12;;;;;;;33.72;20.10;;;;;;;4.99;100.00;99744.63;5111165;28;20031;-70
2023/01/16 01:36:38;;;;;;;32.35;20.15;;;;;;;4.97;100.00;99749.19;5109677;28;20084;-70
2023/01/16 01:39:03;;;;;;;32.60;19.77;;;;;;;4.95;100.00;99746.66;5110670;28;20718;-71
2023/01/16 01:41:29;;;;;;;35.70;21.13;;;;;;;4.94;100.00;99742.31;5109968;28;20023;-70
2023/01/16 01:43:56;;;;;;;36.40;20.92;;;;;;;4.92;100.00;99733.59;5109302;28;20031;-70
2023/01/16 01:46:31;;;;;;;35.08;20.52;;;;;;;4.92;100.00;99735.41;5106644;27;20530;-70
2023/01/16 01:49:22;;;;;;;31.08;19.50;;;;;;;4.90;100.00;99734.69;5110005;28;20449;-70
2023/01/16 01:51:49;;;;;;;35.42;21.10;;;;;;;4.89;100.00;99736.47;5112070;27;20042;-70
2023/01/16 01:54:20;;;;;;;31.35;20.08;;;;;;;4.88;100.00;99723.31;5110779;28;20047;-70
2023/01/16 01:56:51;;;;;;;28.83;18.52;;;;;;;4.88;100.00;99724.16;5110490;28;20027;-70
2023/01/16 01:59:25;;;;;;;33.50;21.30;;;;;;;4.88;100.00;99721.50;5108294;28;20034;-70
2023/01/16 02:01:52;;;;;;;31.58;20.48;;;;;;;4.88;100.00;99716.19;5109406;28;20035;-70
2023/01/16 02:04:22;;;;;;;34.92;21.45;;;;;;;4.92;100.00;99719.47;5110520;27;20038;-70
2023/01/16 02:06:52;;;;;;;36.53;23.35;;;;;;;4.96;100.00;99718.28;5108910;28;20023;-70
2023/01/16 02:09:18;;;;;;;33.28;21.00;;;;;;;5.00;100.00;99717.09;5109269;28;20107;-70
2023/01/16 02:12:14;;;;;;;41.45;23.33;;;;;;;4.96;100.00;99702.34;5110407;28;20039;-70
2023/01/16 02:14:43;;;;;;;35.80;21.85;;;;;;;5.03;100.00;99701.75;5107081;28;20488;-70
2023/01/16 02:20:25;;;;;;;37.78;22.67;;;;;;;5.06;100.00;99692.72;5109991;28;20130;-70
2023/01/16 02:22:59;;;;;;;39.28;22.05;;;;;;;5.06;100.00;99693.56;5107950;28;20118;-70
2023/01/16 02:26:02;;;;;;;36.67;23.13;;;;;;;5.04;100.00;99695.50;5109917;28;20059;-70
2023/01/16 02:28:52;;;;;;;37.85;23.13;;;;;;;5.01;100.00;99669.16;5107613;28;20031;-70
2023/01/16 02:31:20;;;;;;;37.97;23.20;;;;;;;5.01;100.00;99682.44;5107250;28;20051;-70
2023/01/16 02:33:51;;;;;;;35.17;23.33;;;;;;;5.02;100.00;99677.94;5108433;28;20019;-70
2023/01/16 02:36:21;;;;;;;35.35;21.80;;;;;;;5.00;100.00;99669.28;5109499;28;20028;-70
2023/01/16 02:38:58;;;;;;;35.80;22.63;;;;;;;5.02;100.00;99660.22;5109226;28;20149;-70
2023/01/16 02:41:41;;;;;;;34.65;21.88;;;;;;;5.01;100.00;99650.56;5109411;28;20041;-70
2023/01/16 02:44:28;;;;;;;37.53;22.23;;;;;;;5.00;100.00;99645.34;5109742;28;20059;-70
2023/01/16 02:47:12;;;;;;;38.38;23.75;;;;;;;5.02;100.00;99659.34;5109436;28;20027;-70
2023/01/16 02:49:46;;;;;;;33.40;21.17;;;;;;;5.03;100.00;99658.41;5109324;28;20089;-70
2023/01/16 02:52:29;;;;;;;34.50;22.05;;;;;;;5.01;100.00;99655.88;5109452;28;20041;-70
2023/01/16 02:55:03;;;;;;;37.55;23.60;;;;;;;4.98;100.00;99640.16;5108172;28;20552;-70
2023/01/16 02:57:36;;;;;;;37.17;21.55;;;;;;;4.96;100.00;99638.59;5109461;28;20024;-70
2023/01/16 03:00:05;;;;;;;36.83;23.08;;;;;;;5.01;100.00;99647.91;5107870;28;20547;-70
2023/01/16 03:02:30;;;;;;;37.08;23.67;;;;;;;5.01;100.00;99644.38;5109658;28;20543;-70
2023/01/16 03:04:56;;;;;;;34.65;21.65;;;;;;;5.00;100.00;99640.88;5109092;28;20023;-70
2023/01/16 03:07:36;;;;;;;35.53;21.90;;;;;;;5.00;100.00;99646.19;5109222;28;20022;-70
2023/01/16 03:10:29;;;;;;;34.03;22.00;;;;;;;4.96;100.00;99634.09;5107664;28;20036;-70
2023/01/16 03:13:16;;;;;;;33.33;22.40;;;;;;;4.98;100.00;99632.19;5108345;28;20024;-70
2023/01/16 03:15:50;;;;;;;35.78;21.63;;;;;;;5.00;100.00;99635.56;5107453;28;20035;-70
2023/01/16 03:18:23;;;;;;;;;;;;;;;4.98;100.00;99633.97;5107866;28;20031;-70
2023/01/16 03:20:57;;;;;;;33.95;20.55;;;;;;;4.97;100.00;99627.84;5108579;28;19916;-71
2023/01/16 03:23:51;;;;;;;31.95;21.77;;;;;;;4.95;100.00;99629.75;5108540;28;21648;-70
2023/01/16 03:26:38;;;;;;;40.92;22.88;;;;;;;4.94;100.00;99620.09;5094260;28;20123;-70
2023/01/16 03:29:06;;;;;;;37.30;22.30;;;;;;;4.94;100.00;99617.44;5107820;28;20552;-70
2023/01/16 03:31:41;;;;;;;36.92;22.35;;;;;;;4.93;100.00;99609.59;5108888;28;20034;-70
2023/01/16 03:34:31;;;;;;;38.22;22.45;;;;;;;4.93;100.00;99613.06;5107772;28;20035;-70
2023/01/16 03:37:04;;;;;;;35.63;21.55;;;;;;;4.95;100.00;99623.59;5108343;28;20024;-70
2023/01/16 03:39:36;;;;;;;33.85;21.20;;;;;;;4.93;100.00;99605.09;5108496;28;20027;-70
2023/01/16 03:42:07;;;;;;;35.13;21.98;;;;;;;4.89;100.00;99601.00;5108276;28;20079;-71
2023/01/16 03:44:41;;;;;;;34.55;21.65;;;;;;;4.97;100.00;99611.03;5107811;28;20028;-70
2023/01/16 03:47:10;;;;;;;;;;;;;;;4.94;100.00;99600.66;5108967;28;20035;-70
2023/01/16 03:49:42;;;;;;;33.00;21.45;;;;;;;4.87;100.00;99581.66;5109812;28;19951;-70
2023/01/16 03:52:13;;;;;;;35.20;21.38;;;;;;;4.94;100.00;99590.03;5110780;28;20038;-70
2023/01/16 03:55:11;;;;;;;34.97;21.67;;;;;;;4.96;100.00;99583.63;5110732;28;20038;-70
2023/01/16 03:57:46;;;;;;;37.20;21.90;;;;;;;4.97;100.00;99577.38;5111424;28;20085;-70
2023/01/16 04:00:13;;;;;;;34.63;21.92;;;;;;;4.88;100.00;99559.47;5112457;28;20039;-70
2023/01/16 04:02:44;;;;;;;40.40;23.13;;;;;;;4.96;100.00;99577.47;5112688;28;20032;-70
2023/01/16 04:05:15;;;;;;;35.53;20.48;;;;;;;4.95;100.00;99581.94;5112631;28;20396;-70
2023/01/16 04:08:09;;;;;;;34.88;22.88;;;;;;;4.94;100.00;99577.59;5111175;28;20035;-70
2023/01/16 04:10:38;;;;;;;40.72;24.05;;;;;;;4.93;100.00;99575.88;5112082;28;20036;-70
2023/01/16 04:13:18;;;;;;;38.83;25.33;;;;;;;4.93;100.00;99580.38;5112192;28;20028;-70
2023/01/16 04:15:47;;;;;;;39.10;24.63;;;;;;;4.89;100.00;99570.91;5112514;28;20047;-71
2023/01/16 04:18:13;;;;;;;42.22;26.50;;;;;;;4.90;100.00;99572.63;5112271;28;20065;-70
2023/01/16 04:20:41;;;;;;;42.00;25.42;;;;;;;4.89;100.00;99570.91;5112448;28;20047;-71
2023/01/16 04:23:07;;;;;;;41.42;26.17;;;;;;;4.84;100.00;99575.75;5109542;28;20100;-70
2023/01/16 04:25:32;;;;;;;45.05;27.40;;;;;;;4.86;100.00;99572.00;5112470;28;20480;-70
2023/01/16 04:27:58;;;;;;;38.45;24.92;;;;;;;4.88;100.00;99575.41;5112203;28;20035;-70
2023/01/16 04:30:23;;;;;;;41.65;25.75;;;;;;;4.89;100.00;99569.13;5112400;28;20106;-70
2023/01/16 04:32:49;;;;;;;44.17;27.13;;;;;;;4.91;100.00;99569.84;5111588;28;20024;-70
2023/01/16 04:35:14;;;;;;;44.92;26.95;;;;;;;4.91;100.00;99564.53;5111458;28;20036;-70
2023/01/16 04:37:39;;;;;;;40.50;26.35;;;;;;;4.90;100.00;99554.84;5111284;28;20027;-70
2023/01/16 04:40:08;;;;;;;46.88;27.95;;;;;;;4.89;100.00;99547.88;5111325;27;20043;-70
2023/01/16 04:42:34;;;;;;;47.97;29.27;;;;;;;4.93;100.00;99544.00;5111534;28;20023;-70
2023/01/16 04:44:59;;;;;;;45.97;26.58;;;;;;;4.94;100.00;99545.72;5111815;28;20463;-70
2023/01/16 04:47:25;;;;;;;45.00;27.88;;;;;;;4.95;100.00;99549.19;5111890;28;20023;-70
2023/01/16 04:49:50;;;;;;;45.00;27.73;;;;;;;4.95;100.00;99542.09;5111516;28;20054;-70
2023/01/16 04:52:15;;;;;;;47.72;28.77;;;;;;;4.91;100.00;99516.72;5110996;28;20035;-70
2023/01/16 04:54:41;;;;;;;46.28;29.30;;;;;;;4.93;100.00;99508.63;5108310;28;20088;-70
2023/01/16 04:57:06;;;;;;;46.50;29.13;;;;;;;4.93;100.00;99493.53;5111035;28;20034;-70
2023/01/16 04:59:32;;;;;;;49.03;29.42;;;;;;;4.99;100.00;99503.69;5111090;28;20035;-70
2023/01/16 05:01:57;;;;;;;50.70;30.27;;;;;;;4.99;100.00;99495.72;5111145;28;20110;-70
2023/01/16 05:04:23;;;;;;;47.00;28.80;;;;;;;5.03;100.00;99501.63;5110557;28;20031;-70
2023/01/16 05:06:48;;;;;;;44.72;27.75;;;;;;;5.00;100.00;99480.63;5111079;28;20055;-70
2023/01/16 05:09:14;;;;;;;44.13;28.77;;;;;;;5.06;100.00;99488.94;5110507;28;20035;-70
2023/01/16 05:11:39;;;;;;;49.05;28.27;;;;;;;4.97;100.00;99475.53;5109595;28;20559;-71
2023/01/16 05:14:07;;;;;;;39.00;25.17;;;;;;;5.07;100.00;99489.78;5111018;28;20088;-70
2023/01/16 05:16:35;;;;;;;45.30;26.70;;;;;;;5.07;100.00;99490.66;5109655;28;20074;-70
2023/01/16 05:19:00;;;;;;;47.92;28.45;;;;;;;5.09;100.00;99488.69;5111248;28;20024;-70
2023/01/16 05:21:26;;;;;;;46.67;28.73;;;;;;;5.10;100.00;99479.78;5110942;28;20375;-70
2023/01/16 05:23:51;;;;;;;44.92;27.67;;;;;;;5.13;100.00;99476.03;5111612;27;20427;-69
2023/01/16 05:26:16;;;;;;;45.00;28.15;;;;;;;5.15;100.00;99469.63;5110046;28;20129;-70
2023/01/16 05:28:42;;;;;;;42.58;26.67;;;;;;;5.16;100.00;99467.81;5111325;28;20023;-70
2023/01/16 05:31:07;;;;;;;45.22;26.83;;;;;;;5.18;100.00;99465.88;5111297;27;20027;-70
2023/01/16 05:33:33;;;;;;;40.05;25.95;;;;;;;5.20;100.00;99462.16;5109968;27;20031;-69
2023/01/16 05:35:58;;;;;;;40.17;26.17;;;;;;;5.24;100.00;99455.59;5109728;28;20046;-70
2023/01/16 05:38:24;;;;;;;45.45;27.17;;;;;;;5.27;100.00;99454.50;5110247;28;20035;-70
2023/01/16 05:40:49;;;;;;;45.38;27.75;;;;;;;5.29;100.00;99450.75;5106332;28;20077;-69
2023/01/16 05:43:15;;;;;;;51.80;29.65;;;;;;;5.30;100.00;99463.09;5109963;28;20472;-70
2023/01/16 05:45:40;;;;;;;46.13;29.48;;;;;;;5.35;100.00;99441.47;5110673;28;20036;-69
2023/01/16 05:48:06;;;;;;;48.85;30.42;;;;;;;5.44;100.00;99456.66;5110549;28;20032;-69
2023/01/16 05:50:32;;;;;;;57.17;33.50;;;;;;;5.41;100.00;99460.41;5110138;28;20059;-70
2023/01/16 05:52:57;;;;;;;53.03;31.42;;;;;;;5.43;100.00;99454.97;5109448;28;20050;-69
2023/01/16 05:55:23;;;;;;;50.13;31.05;;;;;;;5.38;100.00;99438.56;5109982;28;20073;-70
2023/01/16 05:57:48;;;;;;;54.97;33.28;;;;;;;5.46;100.00;99439.63;5109855;28;20026;-70
2023/01/16 06:00:15;;;;;;;54.15;32.38;;;;;;;5.41;100.00;99435.63;5109839;28;20030;-70
2023/01/16 06:02:41;;;;;;;54.38;33.50;;;;;;;5.41;100.00;99436.47;5109505;28;20042;-70
2023/01/16 06:05:07;;;;;;;54.95;32.80;;;;;;;5.42;100.00;99446.13;5108923;28;20028;-69
2023/01/16 06:07:32;;;;;;;50.25;31.65;;;;;;;5.36;100.00;99433.38;5108925;28;20161;-70
2023/01/16 06:09:58;;;;;;;48.83;31.20;;;;;;;5.40;100.00;99441.91;5108658;28;20793;-70
2023/01/16 06:12:24;;;;;;;48.10;30.63;;;;;;;5.39;100.00;99435.78;5107700;27;20083;-70
2023/01/16 06:14:50;;;;;;;54.15;32.10;;;;;;;5.33;100.00;99433.63;5109020;28;20059;-70
2023/01/16 06:17:16;;;;;;;50.47;30.05;;;;;;;5.43;100.00;99447.84;5109056;28;20062;-69
2023/01/16 06:19:42;;;;;;;44.95;29.08;;;;;;;5.38;100.00;99436.72;5108655;28;20024;-70
2023/01/16 06:22:08;;;;;;;47.03;29.42;;;;;;;5.36;100.00;99430.72;5109686;28;20023;-69
2023/01/16 06:24:33;;;;;;;48.72;28.88;;;;;;;5.44;100.00;99436.25;5110449;28;20027;-70
2023/01/16 06:26:59;;;;;;;49.03;29.80;;;;;;;5.38;100.00;99425.28;5109505;28;20089;-69
2023/01/16 06:29:24;;;;;;;50.13;30.35;;;;;;;5.39;100.00;99425.16;5109326;28;20487;-70
2023/01/16 06:31:50;;;;;;;45.83;28.90;;;;;;;5.41;100.00;99423.19;5109479;28;20088;-70
2023/01/16 06:34:16;;;;;;;48.85;30.52;;;;;;;5.37;100.00;99412.94;5109104;28;20083;-69
2023/01/16 06:36:42;;;;;;;44.80;28.38;;;;;;;5.45;100.00;99410.50;5108440;28;20019;-70
2023/01/16 06:39:12;;;;;;;48.53;29.88;;;;;;;5.41;100.00;99403.72;5106615;28;20023;-70
2023/01/16 06:41:38;;;;;;;46.72;29.88;;;;;;;5.48;100.00;99419.06;5105498;28;20035;-70
2023/01/16 06:44:04;;;;;;;45.63;28.70;;;;;;;5.46;100.00;99413.03;5107766;28;20031;-71
2023/01/16 06:46:29;;;;;;;48.35;29.45;;;;;;;5.44;100.00;99409.66;5108876;28;20152;-70
2023/01/16 06:48:55;;;;;;;48.40;29.55;;;;;;;5.36;100.00;99395.28;5108528;28;20114;-70
2023/01/16 06:51:21;;;;;;;46.13;27.77;;;;;;;5.44;100.00;99412.31;5108407;28;20069;-70
2023/01/16 06:53:46;;;;;;;47.85;27.75;;;;;;;5.46;100.00;99415.69;5108468;28;20106;-70
2023/01/16 06:56:11;;;;;;;46.00;28.30;;;;;;;5.44;100.00;99417.63;5108423;28;20054;-70
2023/01/16 06:58:37;;;;;;;46.20;28.70;;;;;;;5.42;100.00;99416.91;5107375;28;20043;-70
2023/01/16 07:01:02;;;;;;;46.40;28.17;;;;;;;5.49;100.00;99425.22;5105357;28;20066;-71
2023/01/16 07:03:28;;;;;;;48.67;28.38;;;;;;;5.39;100.00;99413.66;5103254;28;20047;-70
2023/01/16 07:05:53;;;;;;;45.45;28.30;;;;;;;5.44;100.00;99430.06;5100740;28;20128;-70
2023/01/16 07:08:19;;;;;;;46.15;28.60;;;;;;;5.36;100.00;99412.09;5107565;28;20019;-70
2023/01/16 07:10:44;;;;;;;48.47;29.40;;;;;;;5.44;100.00;99428.25;5107706;28;20028;-70
2023/01/16 07:13:10;;;;;;;50.30;29.75;;;;;;;5.44;100.00;99433.56;5107390;28;20391;-70
2023/01/16 07:24:03;;;;;;;50.20;29.48;;;;;;;5.40;100.00;99418.84;5106076;28;20096;-70
2023/01/16 07:26:29;;;;;;;44.13;28.08;;;;;;;5.49;100.00;99410.13;5106560;28;20039;-70
2023/01/16 07:28:56;;;;;;;46.25;27.92;;;;;;;5.52;100.00;99422.31;5108508;28;20441;-70
2023/01/16 07:31:22;;;;;;;47.25;27.75;;;;;;;5.49;100.00;99407.47;5108615;28;20515;-70
2023/01/16 07:33:48;;;;;;;44.83;28.48;;;;;;;5.51;100.00;99416.16;5105686;28;20127;-70
2023/01/16 07:36:13;;;;;;;47.58;28.23;;;;;;;5.51;100.00;99410.84;5107089;28;20019;-70
2023/01/16 07:38:39;;;;;;;51.95;30.73;;;;;;;5.46;100.00;99397.09;5108769;28;20107;-70
2023/01/16 07:41:04;;;;;;;48.33;28.60;;;;;;;5.53;100.00;99398.28;5107842;28;20024;-70
2023/01/16 07:43:30;;;;;;;46.92;28.45;;;;;;;5.44;100.00;99376.88;5106790;28;20019;-70
2023/01/16 07:45:55;;;;;;;49.40;27.80;;;;;;;5.55;100.00;99392.81;5108118;28;20442;-70
2023/01/16 07:48:22;;;;;;;43.88;27.45;;;;;;;5.57;100.00;99389.06;5107055;28;20037;-70
2023/01/16 07:50:53;;;;;;;50.50;28.75;;;;;;;5.49;100.00;99370.25;5108055;28;20052;-70
2023/01/16 07:53:22;;;;;;;49.83;30.98;;;;;;;5.63;100.00;99377.94;5108306;28;20086;-71
2023/01/16 07:55:59;;;;;;;45.53;27.67;;;;;;;5.63;100.00;99374.41;5108129;28;20059;-70
2023/01/16 07:58:24;;;;;;;50.35;30.70;;;;;;;5.60;100.00;99366.69;5106436;28;20039;-71
2023/01/16 08:00:52;;;;;;;51.55;31.15;;;;;;;5.57;100.00;99354.50;5107479;28;20036;-70
2023/01/16 08:03:18;;;;;;;50.78;31.60;;;;;;;5.62;100.00;99354.97;5108276;28;20529;-69
2023/01/16 08:05:44;;;;;;;55.92;33.58;;;;;;;5.65;100.00;99345.88;5106550;28;20020;-70
2023/01/16 08:08:11;;;;;;;54.25;32.92;;;;;;;5.63;100.00;99327.38;5106601;28;20028;-70
2023/01/16 08:10:37;;;;;;;51.15;31.55;;;;;;;5.66;100.00;99335.13;5107052;28;20047;-69
2023/01/16 08:13:02;;;;;;;56.83;33.17;;;;;;;5.64;100.00;99322.94;5106050;28;20138;-70
2023/01/16 08:15:28;;;;;;;56.72;33.55;;;;;;;5.66;100.00;99323.63;5107714;28;20131;-70
2023/01/16 08:17:54;;;;;;;55.88;33.33;;;;;;;5.68;100.00;99324.34;5107696;28;20114;-70
2023/01/16 08:20:19;;;;;;;59.35;35.67;;;;;;;5.65;100.00;99317.47;5106524;28;20031;-69
2023/01/16 08:22:47;;;;;;;57.00;35.38;;;;;;;5.70;100.00;99309.09;5107719;28;20015;-70
2023/01/16 08:25:13;;;;;;;58.08;33.90;;;;;;;5.67;100.00;99286.25;5098640;28;20032;-70
2023/01/16 08:27:40;;;;;;;62.38;35.38;;;;;;;5.65;100.00;99274.06;5108022;28;20027;-70
2023/01/16 08:30:06;;;;;;;63.70;34.53;;;;;;;5.68;100.00;99277.31;5107677;28;20028;-70
2023/01/16 08:32:31;;;;;;;58.92;34.55;;;;;;;5.63;100.00;99244.09;5108186;28;20748;-70
2023/01/16 08:34:57;;;;;;;61.53;34.70;;;;;;;5.70;100.00;99240.78;5107786;28;20028;-70
2023/01/16 08:37:22;;;;;;;66.00;35.75;;;;;;;5.71;100.00;99249.63;5110810;28;20118;-70
2023/01/16 08:39:47;;;;;;;57.38;34.25;;;;;;;5.66;100.00;99231.38;5108567;28;20039;-70
2023/01/16 08:53:09;;;;;;;64.72;33.78;;;;;;;5.77;100.00;99241.13;5110163;28;20039;-69
2023/01/16 08:55:34;;;;;;;56.42;31.88;;;;;;;5.77;100.00;99239.28;5110980;28;20693;-69
2023/01/16 08:58:00;;;;;;;62.10;33.70;;;;;;;5.79;100.00;99249.78;5109434;28;20028;-69
2023/01/16 09:00:27;;;;;;;56.15;31.35;;;;;;;5.82;100.00;99239.78;5108885;28;20039;-69
2023/01/16 09:02:53;;;;;;;59.13;32.33;;;;;;;5.86;100.00;99230.56;5110193;28;20399;-69
2023/01/16 09:05:19;;;;;;;60.65;34.28;;;;;;;5.93;100.00;99228.22;5109997;28;20032;-69
2023/01/16 09:07:44;;;;;;;60.10;32.60;;;;;;;5.91;100.00;99220.38;5109940;28;20035;-69
2023/01/16 09:10:11;;;;;;;56.45;32.70;;;;;;;5.95;100.00;99208.50;5110418;28;20023;-69
2023/01/16 09:15:21;;;;;;;60.03;32.67;;;;;;;5.85;100.00;99175.69;5107699;28;20034;-68
2023/01/16 09:17:46;;;;;;;61.20;34.25;;;;;;;5.99;100.00;99196.59;5108469;28;20027;-69
2023/01/16 09:20:12;;;;;;;59.15;33.17;;;;;;;5.95;100.00;99184.53;5108431;28;20038;-69
2023/01/16 09:22:37;;;;;;;59.38;34.53;;;;;;;6.05;100.00;99187.22;5107890;28;20035;-69
2023/01/16 09:25:03;;;;;;;60.20;33.55;;;;;;;6.05;100.00;99173.91;5109019;28;20027;-68
2023/01/16 09:27:29;;;;;;;58.92;34.17;;;;;;;6.06;100.00;99175.63;5108297;28;20028;-69
2023/01/16 09:29:54;;;;;;;63.72;35.47;;;;;;;6.12;100.00;99183.91;5109486;28;20085;-69
2023/01/16 09:32:20;;;;;;;63.95;34.65;;;;;;;6.14;100.00;99176.63;5108726;28;20027;-69
2023/01/16 09:34:46;;;;;;;60.47;33.63;;;;;;;6.12;100.00;99161.75;5109266;28;20046;-69
2023/01/16 09:37:12;;;;;;;67.07;34.60;;;;;;;6.15;100.00;99151.69;5108949;28;20028;-69
2023/01/16 09:39:37;;;;;;;56.75;33.58;;;;;;;6.26;100.00;99162.22;5108314;28;20050;-69
2023/01/16 09:45:08;;;;;;;58.10;33.03;;;;;;;6.30;100.00;99146.84;5109832;28;20156;-69
2023/01/16 09:47:35;;;;;;;67.30;37.88;;;;;;;6.30;100.00;99131.72;5108930;28;20035;-69
2023/01/16 09:50:12;;;;;;;60.03;35.22;;;;;;;6.35;100.00;99121.47;5106064;28;20135;-69
2023/01/16 09:58:35;;;;;;;66.40;37.30;;;;;;;6.35;100.00;99109.97;5107502;28;20034;-69
2023/01/16 10:01:03;;;;;;;61.58;37.55;;;;;;;6.30;100.00;99104.22;5107792;28;20111;-68
2023/01/16 10:03:28;;;;;;;63.58;36.75;;;;;;;6.36;100.00;99093.03;5108084;28;20083;-69
2023/01/16 10:06:20;;;;;;;62.22;35.05;;;;;;;6.38;100.00;99088.41;5108183;28;20027;-69
2023/01/16 10:08:48;;;;;;;60.90;35.97;;;;;;;6.40;100.00;99110.41;5108499;28;20023;-69
2023/01/16 10:11:22;;;;;;;57.22;31.95;;;;;;;6.38;100.00;99109.69;5108911;28;20633;-69
2023/01/16 10:14:16;;;;;;;;;;;;;;;6.41;100.00;99115.59;5108889;28;20081;-69
2023/01/16 10:16:57;;;;;;;54.58;28.88;;;;;;;6.37;100.00;99102.69;5107247;28;19911;-69
2023/01/16 10:19:31;;;;;;;48.75;28.95;;;;;;;6.43;100.00;99095.00;5105279;28;20023;-70
2023/01/16 10:22:24;;;;;;;;;;;;;;;6.35;100.00;99078.88;5107088;28;20046;-69
2023/01/16 10:25:29;;;;;;;54.53;30.38;;;;;;;6.40;100.00;99079.31;5108909;28;19915;-70
2023/01/16 10:28:27;;;;;;;50.83;27.63;;;;;;;6.41;100.00;99070.34;5057499;28;20403;-68
2023/01/16 10:30:57;;;;;;;48.28;27.40;;;;;;;6.38;100.00;99059.97;5109598;28;20038;-68
2023/01/16 10:33:44;;;;;;;47.83;27.75;;;;;;;6.35;100.00;99057.56;5108055;28;20042;-68
2023/01/16 10:36:12;;;;;;;45.33;26.17;;;;;;;6.29;100.00;99042.16;5107778;28;20399;-68
2023/01/16 10:38:45;;;;;;;46.13;27.27;;;;;;;6.36;100.00;99039.78;5102030;28;20503;-68
2023/01/16 10:49:34;;;;;;;44.33;26.48;;;;;;;6.37;100.00;98998.88;5100449;28;20090;-68
2023/01/16 10:52:04;;;;;;;44.92;25.70;;;;;;;6.45;100.00;98991.84;5098642;27;20056;-69
2023/01/16 10:54:30;;;;;;;44.75;26.38;;;;;;;6.44;100.00;98984.84;5096376;28;20083;-68
2023/01/16 10:57:01;;;;;;;39.38;23.23;;;;;;;6.47;100.00;98973.06;5100666;28;20036;-68
2023/01/16 10:59:28;;;;;;;40.65;24.55;;;;;;;6.53;100.00;98980.50;5100484;28;20415;-68
2023/01/16 11:02:12;;;;;;;44.28;25.02;;;;;;;6.52;100.00;98957.50;5101926;28;20047;-68
2023/01/16 11:04:40;;;;;;;40.05;24.27;;;;;;;6.50;100.00;98932.84;5101592;28;20532;-67
2023/01/16 11:07:18;;;;;;;39.22;23.33;;;;;;;6.54;100.00;98931.56;5099799;28;20048;-67
2023/01/16 11:09:48;;;;;;;41.58;24.45;;;;;;;6.57;100.00;98939.28;5099033;28;20035;-67
2023/01/16 11:18:34;;;;;;;37.53;21.92;;;;;;;6.60;100.00;98909.69;5092352;28;20082;-68
2023/01/16 11:21:30;;;;;;;37.70;20.65;;;;;;;6.56;100.00;98901.16;5099428;28;20035;-68
2023/01/16 11:24:17;;;;;;;40.88;22.27;;;;;;;6.57;100.00;98900.16;5087090;28;20043;-69
2023/01/16 11:26:51;;;;;;;40.28;22.63;;;;;;;6.60;100.00;98894.56;5097539;28;20031;-68
2023/01/16 11:29:18;;;;;;;36.85;22.40;;;;;;;6.57;100.00;98889.50;5098882;28;21855;-68
2023/01/16 11:31:53;;;;;;;35.00;20.50;;;;;;;6.58;100.00;98885.84;5099335;28;20404;-69
2023/01/16 11:34:20;;;;;;;36.40;21.85;;;;;;;6.59;100.00;98874.25;5093832;28;20070;-68
2023/01/16 11:36:47;;;;;;;38.53;21.90;;;;;;;6.53;100.00;98866.81;5097368;28;20562;-67
2023/01/16 11:39:25;;;;;;;40.22;22.77;;;;;;;6.49;100.00;98861.94;5091041;28;20043;-69
2023/01/16 11:41:54;;;;;;;37.78;21.17;;;;;;;6.46;100.00;98851.56;5108249;28;20059;-69
2023/01/16 11:47:21;;;;;;;34.15;20.83;;;;;;;6.47;100.00;98837.25;5108550;28;20047;-69
2023/01/16 11:49:50;;;;;;;33.20;20.90;;;;;;;6.45;100.00;98824.09;5107707;28;20040;-69
2023/01/16 11:52:26;;;;;;;36.97;22.35;;;;;;;6.54;100.00;98825.88;5108349;28;20036;-69
2023/01/16 11:54:55;;;;;;;36.33;21.98;;;;;;;6.54;100.00;98822.38;5107323;28;20034;-69
2023/01/16 11:57:49;;;;;;;36.92;21.85;;;;;;;6.54;100.00;98820.56;5108378;28;20026;-69
2023/01/16 12:00:20;;;;;;;41.15;23.17;;;;;;;6.55;100.00;98808.91;5106844;28;20483;-68
2023/01/16 12:02:55;;;;;;;36.92;21.92;;;;;;;6.56;100.00;98801.78;5106214;28;20038;-69
2023/01/16 12:05:56;;;;;;;36.10;21.15;;;;;;;6.48;100.00;98780.38;5107145;28;20106;-69
2023/01/16 12:09:00;;;;;;;37.60;21.77;;;;;;;6.54;100.00;98775.28;5106048;28;20020;-69
2023/01/16 12:11:54;;;;;;;38.13;21.75;;;;;;;6.56;100.00;98778.66;5027652;28;20087;-69
2023/01/16 12:14:41;;;;;;;36.00;21.15;;;;;;;6.60;100.00;98765.88;5111711;28;20034;-69
2023/01/16 12:17:25;;;;;;;33.40;20.77;;;;;;;6.66;100.00;98760.78;5110708;28;20055;-69
2023/01/16 12:20:12;;;;;;;36.05;21.40;;;;;;;6.63;100.00;98763.75;5112007;28;20019;-69
2023/01/16 12:22:47;;;;;;;38.65;22.70;;;;;;;6.63;100.00;98763.75;5112295;28;20032;-69
2023/01/16 12:25:50;;;;;;;37.20;21.23;;;;;;;6.63;100.00;98752.25;5110868;28;20448;-69